createdAt,value
2019-01-21T00:00:08.199Z,20.60
2019-01-21T00:01:08.342Z,19.10
2019-01-21T00:02:08.534Z,19.80
2019-01-21T00:03:14.414Z,19.20
2019-01-21T00:04:09.979Z,20.50
2019-01-21T00:05:09.061Z,19.80
2019-01-21T00:06:09.167Z,21.60
2019-01-21T00:07:09.318Z,21.00
2019-01-21T00:08:09.492Z,21.50
2019-01-21T00:09:09.682Z,20.80
2019-01-21T00:10:09.826Z,21.60
2019-01-21T00:11:10.012Z,21.10
2019-01-21T00:12:10.205Z,22.60
2019-01-21T00:13:10.328Z,23.10
2019-01-21T00:14:10.488Z,21.80
2019-01-21T00:15:10.641Z,23.00
2019-01-21T00:16:10.825Z,22.40
2019-01-21T00:17:10.959Z,23.00
2019-01-21T00:18:11.143Z,22.10
2019-01-21T00:19:11.534Z,21.60
2019-01-21T00:20:11.496Z,21.90
2019-01-21T00:21:11.614Z,22.50
2019-01-21T00:22:11.772Z,21.60
2019-01-21T00:23:11.953Z,23.00
2019-01-21T00:24:12.123Z,23.80
2019-01-21T00:25:12.263Z,22.90
2019-01-21T00:26:12.421Z,22.20
2019-01-21T00:27:12.580Z,21.90
2019-01-21T00:28:12.792Z,22.60
2019-01-21T00:29:13.029Z,23.30
2019-01-21T00:30:13.075Z,23.90
2019-01-21T00:31:13.240Z,22.70
2019-01-21T00:32:13.400Z,24.50
2019-01-21T00:33:13.579Z,23.80
2019-01-21T00:34:13.732Z,24.10
2019-01-21T00:35:13.886Z,23.80
2019-01-21T00:36:14.062Z,22.60
2019-01-21T00:37:14.307Z,24.10
2019-01-21T00:38:14.396Z,23.60
2019-01-21T00:39:14.533Z,24.30
2019-01-21T00:40:14.700Z,24.80
2019-01-21T00:41:14.876Z,23.00
2019-01-21T00:42:15.009Z,22.30
2019-01-21T00:43:15.234Z,23.60
2019-01-21T00:44:15.368Z,24.60
2019-01-21T00:45:15.588Z,22.20
2019-01-21T00:46:15.669Z,25.00
2019-01-21T00:47:15.819Z,24.60
2019-01-21T00:48:15.987Z,22.90
2019-01-21T00:49:16.173Z,25.10
2019-01-21T00:50:16.705Z,24.00
2019-01-21T00:51:16.484Z,25.80
2019-01-21T00:52:16.627Z,24.40
2019-01-21T00:53:16.838Z,26.10
2019-01-21T00:54:16.976Z,26.00
2019-01-21T00:55:17.098Z,25.20
2019-01-21T00:56:17.274Z,24.10
2019-01-21T00:57:17.421Z,22.50
2019-01-21T00:58:17.603Z,21.80
2019-01-21T00:59:17.779Z,22.90
2019-01-21T01:00:17.899Z,22.20
2019-01-21T01:01:18.114Z,22.00
2019-01-21T01:02:18.317Z,22.30
2019-01-21T01:03:18.406Z,23.00
2019-01-21T01:04:18.610Z,23.70
2019-01-21T01:05:18.702Z,24.30
2019-01-21T01:06:18.894Z,23.40
2019-01-21T01:07:19.049Z,24.00
2019-01-21T01:08:19.200Z,23.40
2019-01-21T01:09:19.404Z,24.50
2019-01-21T01:10:19.650Z,23.50
2019-01-21T01:11:19.718Z,23.60
2019-01-21T01:12:19.855Z,26.10
2019-01-21T01:13:20.014Z,24.50
2019-01-21T01:14:20.195Z,24.70
2019-01-21T01:15:20.334Z,26.00
2019-01-21T01:16:20.518Z,26.10
2019-01-21T01:17:20.683Z,25.80
2019-01-21T01:18:20.949Z,26.10
2019-01-21T01:19:21.009Z,26.40
2019-01-21T01:20:21.197Z,26.50
2019-01-21T01:21:21.339Z,25.00
2019-01-21T01:22:21.496Z,26.70
2019-01-21T01:23:21.655Z,24.50
2019-01-21T01:24:21.848Z,25.00
2019-01-21T01:25:22.006Z,24.80
2019-01-21T01:26:22.223Z,25.60
2019-01-21T01:27:22.270Z,25.30
2019-01-21T01:28:22.455Z,24.20
2019-01-21T01:29:22.636Z,25.40
2019-01-21T01:30:22.813Z,24.80
2019-01-21T01:31:22.979Z,25.20
2019-01-21T01:32:23.118Z,23.10
2019-01-21T01:33:23.249Z,23.90
2019-01-21T01:34:23.465Z,25.40
2019-01-21T01:35:23.587Z,23.20
2019-01-21T01:36:23.769Z,23.50
2019-01-21T01:37:23.906Z,24.30
2019-01-21T01:38:24.065Z,24.60
2019-01-21T01:39:24.252Z,24.50
2019-01-21T01:40:24.412Z,24.20
2019-01-21T01:41:24.588Z,24.40
2019-01-21T01:42:24.766Z,24.30
2019-01-21T01:43:25.014Z,24.70
2019-01-21T01:44:25.080Z,25.10
2019-01-21T01:45:25.248Z,24.60
2019-01-21T01:46:25.401Z,24.50
2019-01-21T01:47:25.540Z,25.70
2019-01-21T01:48:25.700Z,24.10
2019-01-21T01:49:25.888Z,25.40
2019-01-21T01:50:26.034Z,24.50
2019-01-21T01:51:26.381Z,24.30
2019-01-21T01:52:26.346Z,24.40
2019-01-21T01:53:26.507Z,24.30
2019-01-21T01:54:26.676Z,23.90
2019-01-21T01:55:26.844Z,24.50
2019-01-21T01:56:27.241Z,24.70
2019-01-21T01:57:27.150Z,24.00
2019-01-21T01:58:27.320Z,24.50
2019-01-21T01:59:27.545Z,25.30
2019-01-21T02:00:27.624Z,24.50
2019-01-21T02:01:27.807Z,25.20
2019-01-21T02:02:27.971Z,23.40
2019-01-21T02:03:28.157Z,23.70
2019-01-21T02:04:28.311Z,22.40
2019-01-21T02:05:28.480Z,23.80
2019-01-21T02:06:28.637Z,23.90
2019-01-21T02:07:28.836Z,21.90
2019-01-21T02:08:28.918Z,20.80
2019-01-21T02:09:29.099Z,21.50
2019-01-21T02:10:29.271Z,23.30
2019-01-21T02:11:29.430Z,20.70
2019-01-21T02:12:29.565Z,20.30
2019-01-21T02:13:29.741Z,20.40
2019-01-21T02:14:29.937Z,19.70
2019-01-21T02:15:30.137Z,20.90
2019-01-21T02:16:30.301Z,20.30
2019-01-21T02:17:30.387Z,20.10
2019-01-21T02:18:30.558Z,21.10
2019-01-21T02:19:30.770Z,20.00
2019-01-21T02:20:30.904Z,20.20
2019-01-21T02:21:31.068Z,21.20
2019-01-21T02:22:31.245Z,21.90
2019-01-21T02:23:31.398Z,22.60
2019-01-21T02:24:31.745Z,22.50
2019-01-21T02:25:31.742Z,24.70
2019-01-21T02:26:31.903Z,23.60
2019-01-21T02:27:32.086Z,23.60
2019-01-21T02:28:32.206Z,22.50
2019-01-21T02:29:32.417Z,23.00
2019-01-21T02:30:32.570Z,21.60
2019-01-21T02:31:32.723Z,22.40
2019-01-21T02:32:33.014Z,22.20
2019-01-21T02:33:33.030Z,22.70
2019-01-21T02:34:33.248Z,21.00
2019-01-21T02:35:33.389Z,20.00
2019-01-21T02:36:33.529Z,21.30
2019-01-21T02:37:33.725Z,20.70
2019-01-21T02:38:33.891Z,20.90
2019-01-21T02:39:34.056Z,21.80
2019-01-21T02:40:34.219Z,21.90
2019-01-21T02:41:34.329Z,23.40
2019-01-21T02:42:34.526Z,22.60
2019-01-21T02:43:34.723Z,22.00
2019-01-21T02:44:34.845Z,21.80
2019-01-21T02:45:34.965Z,21.40
2019-01-21T02:46:35.131Z,22.00
2019-01-21T02:47:35.322Z,22.80
2019-01-21T02:48:35.561Z,21.10
2019-01-21T02:49:35.663Z,21.10
2019-01-21T02:50:35.778Z,19.40
2019-01-21T02:51:35.942Z,20.20
2019-01-21T02:52:36.136Z,21.10
2019-01-21T02:53:36.282Z,22.10
2019-01-21T02:54:36.489Z,21.40
2019-01-21T02:55:36.594Z,20.90
2019-01-21T02:56:36.777Z,22.00
2019-01-21T02:57:37.064Z,21.80
2019-01-21T02:58:37.107Z,21.90
2019-01-21T02:59:37.276Z,19.70
2019-01-21T03:00:37.407Z,20.50
2019-01-21T03:01:37.565Z,21.60
2019-01-21T03:02:37.733Z,21.20
2019-01-21T03:03:37.904Z,21.30
2019-01-21T03:04:38.071Z,23.10
2019-01-21T03:05:38.353Z,23.60
2019-01-21T03:06:38.353Z,23.60
2019-01-21T03:07:38.548Z,23.80
2019-01-21T03:08:38.721Z,23.70
2019-01-21T03:09:38.896Z,22.60
2019-01-21T03:10:39.032Z,23.20
2019-01-21T03:11:39.196Z,21.80
2019-01-21T03:12:39.374Z,22.90
2019-01-21T03:13:39.554Z,22.90
2019-01-21T03:14:39.681Z,23.30
2019-01-21T03:15:39.826Z,23.20
2019-01-21T03:16:40.024Z,22.40
2019-01-21T03:17:40.172Z,21.00
2019-01-21T03:18:40.305Z,22.70
2019-01-21T03:19:40.476Z,22.20
2019-01-21T03:20:40.668Z,23.60
2019-01-21T03:21:40.924Z,22.70
2019-01-21T03:22:40.971Z,23.80
2019-01-21T03:23:41.125Z,24.20
2019-01-21T03:24:41.278Z,22.90
2019-01-21T03:25:41.507Z,24.70
2019-01-21T03:26:41.643Z,21.60
2019-01-21T03:27:41.821Z,21.20
2019-01-21T03:28:41.958Z,22.20
2019-01-21T03:29:42.149Z,22.20
2019-01-21T03:30:42.456Z,22.60
2019-01-21T03:31:42.472Z,22.60
2019-01-21T03:32:42.882Z,24.20
2019-01-21T03:33:42.791Z,25.50
2019-01-21T03:34:42.968Z,24.40
2019-01-21T03:35:43.161Z,23.60
2019-01-21T03:36:43.273Z,23.90
2019-01-21T03:37:43.470Z,24.50
2019-01-21T03:38:43.764Z,24.50
2019-01-21T03:39:43.768Z,24.60
2019-01-21T03:40:43.925Z,26.00
2019-01-21T03:41:44.095Z,23.30
2019-01-21T03:42:44.283Z,24.30
2019-01-21T03:43:44.422Z,23.30
2019-01-21T03:44:44.591Z,23.30
2019-01-21T03:45:44.778Z,22.90
2019-01-21T03:46:44.985Z,23.90
2019-01-21T03:47:45.134Z,25.20
2019-01-21T03:48:45.243Z,24.80
2019-01-21T03:49:45.395Z,26.80
2019-01-21T03:50:45.575Z,24.90
2019-01-21T03:51:45.728Z,24.70
2019-01-21T03:52:45.892Z,26.80
2019-01-21T03:53:46.046Z,25.90
2019-01-21T03:54:46.453Z,24.70
2019-01-21T03:55:46.362Z,25.70
2019-01-21T03:56:46.547Z,24.50
2019-01-21T03:57:46.689Z,25.50
2019-01-21T03:58:46.804Z,24.80
2019-01-21T03:59:46.983Z,25.20
2019-01-21T04:00:47.181Z,25.60
2019-01-21T04:01:47.332Z,24.90
2019-01-21T04:02:47.521Z,26.60
2019-01-21T04:03:47.661Z,26.50
2019-01-21T04:04:47.794Z,25.70
2019-01-21T04:05:47.962Z,27.60
2019-01-21T04:06:48.115Z,26.30
2019-01-21T04:07:48.306Z,26.10
2019-01-21T04:08:48.437Z,27.10
2019-01-21T04:09:48.574Z,25.40
2019-01-21T04:10:48.783Z,25.80
2019-01-21T04:11:49.051Z,24.20
2019-01-21T04:12:49.114Z,24.80
2019-01-21T04:13:49.257Z,25.60
2019-01-21T04:14:49.402Z,26.00
2019-01-21T04:15:49.593Z,26.20
2019-01-21T04:16:52.767Z,28.30
2019-01-21T04:17:49.937Z,26.50
2019-01-21T04:18:50.058Z,25.50
2019-01-21T04:19:50.311Z,27.80
2019-01-21T04:20:50.393Z,29.10
2019-01-21T04:21:50.548Z,28.40
2019-01-21T04:22:50.722Z,25.90
2019-01-21T04:23:50.870Z,25.20
2019-01-21T04:24:51.028Z,27.20
2019-01-21T04:25:51.189Z,27.70
2019-01-21T04:26:51.348Z,25.40
2019-01-21T04:27:51.580Z,25.00
2019-01-21T04:28:51.655Z,27.10
2019-01-21T04:29:51.820Z,24.80
2019-01-21T04:30:51.985Z,25.10
2019-01-21T04:31:52.126Z,27.10
2019-01-21T04:32:52.343Z,30.40
2019-01-21T04:33:52.464Z,28.70
2019-01-21T04:34:52.650Z,24.20
2019-01-21T04:35:52.862Z,25.60
2019-01-21T04:36:52.914Z,25.50
2019-01-21T04:37:53.109Z,24.70
2019-01-21T04:38:53.275Z,24.30
2019-01-21T04:39:53.506Z,42.30
2019-01-21T04:40:53.626Z,45.80
2019-01-21T04:41:53.760Z,25.10
2019-01-21T04:42:53.939Z,22.80
2019-01-21T04:43:54.104Z,23.60
2019-01-21T04:44:54.302Z,23.50
2019-01-21T04:45:54.421Z,23.20
2019-01-21T04:46:54.563Z,25.00
2019-01-21T04:47:54.709Z,29.80
2019-01-21T04:48:54.897Z,38.30
2019-01-21T04:49:55.075Z,24.60
2019-01-21T04:50:55.228Z,25.10
2019-01-21T04:51:55.373Z,30.60
2019-01-21T04:52:55.677Z,28.70
2019-01-21T04:53:55.700Z,28.70
2019-01-21T04:54:55.890Z,27.80
2019-01-21T04:55:56.049Z,26.40
2019-01-21T04:56:56.209Z,24.80
2019-01-21T04:57:56.354Z,24.70
2019-01-21T04:58:56.547Z,24.60
2019-01-21T04:59:56.701Z,25.10
2019-01-21T05:00:56.953Z,23.50
2019-01-21T05:01:56.993Z,25.70
2019-01-21T05:02:57.167Z,26.50
2019-01-21T05:03:57.339Z,25.60
2019-01-21T05:04:57.494Z,27.40
2019-01-21T05:05:57.662Z,37.80
2019-01-21T05:06:57.809Z,35.10
2019-01-21T05:07:57.970Z,28.10
2019-01-21T05:08:58.199Z,28.20
2019-01-21T05:09:58.301Z,37.50
2019-01-21T05:10:58.443Z,37.50
2019-01-21T05:11:58.830Z,32.40
2019-01-21T05:12:58.779Z,31.00
2019-01-21T05:13:58.951Z,29.60
2019-01-21T05:14:59.108Z,28.40
2019-01-21T05:15:59.263Z,29.70
2019-01-21T05:16:59.458Z,27.80
2019-01-21T05:17:59.570Z,26.70
2019-01-21T05:18:59.754Z,26.90
2019-01-21T05:19:59.920Z,44.10
2019-01-21T05:21:00.073Z,29.00
2019-01-21T05:22:00.220Z,26.70
2019-01-21T05:23:00.366Z,30.20
2019-01-21T05:24:00.563Z,28.90
2019-01-21T05:25:00.754Z,28.20
2019-01-21T05:26:00.957Z,27.50
2019-01-21T05:27:01.013Z,27.10
2019-01-21T05:28:01.182Z,28.40
2019-01-21T05:29:01.378Z,28.00
2019-01-21T05:30:01.562Z,29.00
2019-01-21T05:31:01.705Z,28.80
2019-01-21T05:32:01.844Z,28.40
2019-01-21T05:33:01.997Z,28.70
2019-01-21T05:34:02.376Z,27.70
2019-01-21T05:35:02.354Z,26.80
2019-01-21T05:36:02.514Z,27.30
2019-01-21T05:37:02.657Z,27.10
2019-01-21T05:38:02.800Z,27.60
2019-01-21T05:39:02.996Z,27.30
2019-01-21T05:40:03.146Z,27.40
2019-01-21T05:41:03.329Z,28.10
2019-01-21T05:42:03.512Z,25.80
2019-01-21T05:43:03.603Z,26.00
2019-01-21T05:44:03.777Z,27.70
2019-01-21T05:45:03.933Z,26.40
2019-01-21T05:46:04.118Z,26.50
2019-01-21T05:47:04.255Z,28.20
2019-01-21T05:48:04.410Z,28.40
2019-01-21T05:49:04.594Z,27.60
2019-01-21T05:50:04.783Z,28.90
2019-01-21T05:51:04.899Z,27.70
2019-01-21T05:52:05.043Z,27.00
2019-01-21T05:53:05.202Z,26.20
2019-01-21T05:54:05.388Z,26.40
2019-01-21T05:55:05.510Z,26.50
2019-01-21T05:56:05.686Z,26.80
2019-01-21T05:57:05.871Z,28.10
2019-01-21T05:58:06.070Z,28.00
2019-01-21T05:59:06.275Z,26.20
2019-01-21T06:00:06.343Z,25.90
2019-01-21T06:01:06.517Z,27.70
2019-01-21T06:02:06.700Z,26.20
2019-01-21T06:03:06.837Z,28.20
2019-01-21T06:04:07.020Z,27.00
2019-01-21T06:05:07.166Z,26.30
2019-01-21T06:06:07.342Z,25.90
2019-01-21T06:07:07.657Z,26.60
2019-01-21T06:08:07.668Z,27.00
2019-01-21T06:09:07.835Z,26.80
2019-01-21T06:10:07.982Z,28.30
2019-01-21T06:11:08.126Z,29.10
2019-01-21T06:12:08.352Z,29.50
2019-01-21T06:13:08.542Z,31.00
2019-01-21T06:14:08.658Z,29.60
2019-01-21T06:15:08.881Z,30.60
2019-01-21T06:16:08.936Z,30.20
2019-01-21T06:17:09.162Z,31.20
2019-01-21T06:18:09.306Z,29.90
2019-01-21T06:19:09.589Z,28.70
2019-01-21T06:20:09.622Z,30.50
2019-01-21T06:21:09.776Z,28.80
2019-01-21T06:22:10.001Z,28.50
2019-01-21T06:23:10.144Z,28.10
2019-01-21T06:24:10.264Z,29.60
2019-01-21T06:25:10.417Z,29.30
2019-01-21T06:26:10.578Z,28.90
2019-01-21T06:27:10.781Z,28.40
2019-01-21T06:28:10.880Z,30.50
2019-01-21T06:29:11.058Z,31.10
2019-01-21T06:30:11.217Z,31.80
2019-01-21T06:31:11.427Z,29.90
2019-01-21T06:32:11.602Z,30.60
2019-01-21T06:33:11.714Z,30.70
2019-01-21T06:34:11.871Z,30.50
2019-01-21T06:35:12.037Z,31.10
2019-01-21T06:36:12.205Z,29.40
2019-01-21T06:37:12.389Z,29.40
2019-01-21T06:38:12.523Z,30.60
2019-01-21T06:39:12.770Z,28.10
2019-01-21T06:40:12.952Z,29.70
2019-01-21T06:41:13.004Z,29.00
2019-01-21T06:42:13.181Z,29.10
2019-01-21T06:43:13.326Z,28.50
2019-01-21T06:44:13.506Z,29.20
2019-01-21T06:45:13.652Z,28.20
2019-01-21T06:46:13.812Z,27.50
2019-01-21T06:47:13.982Z,29.10
2019-01-21T06:48:14.287Z,29.60
2019-01-21T06:49:14.316Z,30.00
2019-01-21T06:50:14.464Z,31.00
2019-01-21T06:51:14.869Z,32.30
2019-01-21T06:52:14.819Z,30.70
2019-01-21T06:53:14.973Z,30.00
2019-01-21T06:54:15.125Z,29.80
2019-01-21T06:55:15.288Z,27.00
2019-01-21T06:56:15.495Z,26.20
2019-01-21T06:57:15.600Z,26.40
2019-01-21T06:58:15.788Z,25.90
2019-01-21T06:59:15.916Z,30.20
2019-01-21T07:00:16.100Z,28.50
2019-01-21T07:01:16.261Z,28.60
2019-01-21T07:02:16.431Z,30.60
2019-01-21T07:03:16.615Z,29.20
2019-01-21T07:04:16.811Z,30.30
2019-01-21T07:05:16.925Z,30.30
2019-01-21T07:06:17.069Z,31.80
2019-01-21T07:07:17.233Z,34.60
2019-01-21T07:08:17.383Z,34.90
2019-01-21T07:09:17.564Z,35.00
2019-01-21T07:10:17.759Z,35.40
2019-01-21T07:11:17.887Z,35.60
2019-01-21T07:12:18.112Z,36.50
2019-01-21T07:13:18.245Z,33.90
2019-01-21T07:14:18.371Z,34.00
2019-01-21T07:15:18.576Z,34.00
2019-01-21T07:16:18.693Z,33.00
2019-01-21T07:17:18.873Z,33.50
2019-01-21T07:18:19.657Z,32.70
2019-01-21T07:19:19.164Z,31.90
2019-01-21T07:20:19.386Z,33.30
2019-01-21T07:21:19.634Z,30.50
2019-01-21T07:22:19.679Z,32.50
2019-01-21T07:23:19.808Z,32.60
2019-01-21T07:24:19.979Z,35.50
2019-01-21T07:25:20.197Z,34.30
2019-01-21T07:26:20.317Z,33.20
2019-01-21T07:27:20.502Z,33.50
2019-01-21T07:28:20.652Z,33.50
2019-01-21T07:29:20.878Z,32.60
2019-01-21T07:30:20.991Z,31.60
2019-01-21T07:31:21.118Z,31.50
2019-01-21T07:32:21.303Z,32.20
2019-01-21T07:33:21.441Z,32.70
2019-01-21T07:34:21.594Z,32.30
2019-01-21T07:35:21.796Z,32.70
2019-01-21T07:36:21.945Z,33.60
2019-01-21T07:37:22.188Z,32.00
2019-01-21T07:38:22.250Z,31.60
2019-01-21T07:39:22.420Z,32.30
2019-01-21T07:40:22.586Z,31.80
2019-01-21T07:41:22.744Z,30.60
2019-01-21T07:42:22.936Z,30.60
2019-01-21T07:43:23.079Z,32.20
2019-01-21T07:44:23.241Z,30.80
2019-01-21T07:45:23.495Z,32.80
2019-01-21T07:46:23.541Z,31.80
2019-01-21T07:47:23.750Z,30.80
2019-01-21T07:48:23.895Z,32.70
2019-01-21T07:49:24.058Z,32.80
2019-01-21T07:50:24.794Z,30.40
2019-01-21T07:51:24.378Z,30.60
2019-01-21T07:52:25.322Z,30.90
2019-01-21T07:53:25.318Z,31.60
2019-01-21T07:54:25.013Z,29.90
2019-01-21T07:55:25.122Z,31.60
2019-01-21T07:56:25.398Z,31.70
2019-01-21T07:57:25.352Z,29.70
2019-01-21T07:58:25.531Z,30.10
2019-01-21T07:59:25.688Z,31.30
2019-01-21T08:00:25.894Z,29.10
2019-01-21T08:01:26.025Z,28.50
2019-01-21T08:02:26.254Z,29.00
2019-01-21T08:03:26.356Z,30.80
2019-01-21T08:04:26.513Z,29.50
2019-01-21T08:05:26.712Z,26.90
2019-01-21T08:06:26.853Z,29.50
2019-01-21T08:07:26.986Z,30.10
2019-01-21T08:08:27.164Z,29.10
2019-01-21T08:09:27.334Z,29.60
2019-01-21T08:10:27.611Z,28.20
2019-01-21T08:11:27.664Z,31.20
2019-01-21T08:12:27.815Z,28.90
2019-01-21T08:13:27.977Z,29.50
2019-01-21T08:14:28.138Z,29.70
2019-01-21T08:15:28.332Z,29.30
2019-01-21T08:16:28.506Z,31.10
2019-01-21T08:17:28.638Z,30.00
2019-01-21T08:18:28.853Z,30.80
2019-01-21T08:19:28.928Z,30.30
2019-01-21T08:20:29.128Z,30.00
2019-01-21T08:21:29.284Z,32.60
2019-01-21T08:22:29.430Z,28.70
2019-01-21T08:23:30.352Z,30.80
2019-01-21T08:24:29.772Z,28.70
2019-01-21T08:25:29.926Z,29.50
2019-01-21T08:26:30.135Z,32.20
2019-01-21T08:27:30.344Z,33.10
2019-01-21T08:28:30.477Z,31.10
2019-01-21T08:29:30.816Z,31.90
2019-01-21T08:30:30.764Z,31.70
2019-01-21T08:31:30.899Z,29.70
2019-01-21T08:32:31.099Z,32.80
2019-01-21T08:33:31.251Z,29.20
2019-01-21T08:34:31.403Z,30.80
2019-01-21T08:35:31.655Z,31.10
2019-01-21T08:36:31.721Z,30.00
2019-01-21T08:37:31.898Z,30.70
2019-01-21T08:38:32.073Z,29.10
2019-01-21T08:39:32.222Z,28.30
2019-01-21T08:40:32.392Z,29.60
2019-01-21T08:41:32.545Z,29.70
2019-01-21T08:42:32.698Z,28.40
2019-01-21T08:43:33.022Z,28.80
2019-01-21T08:44:33.020Z,28.30
2019-01-21T08:45:33.202Z,28.90
2019-01-21T08:46:33.360Z,27.80
2019-01-21T08:47:33.513Z,27.70
2019-01-21T08:48:33.693Z,27.90
2019-01-21T08:49:33.829Z,28.40
2019-01-21T08:50:34.017Z,27.00
2019-01-21T08:51:35.622Z,27.70
2019-01-21T08:52:34.286Z,28.40
2019-01-21T08:53:34.488Z,27.10
2019-01-21T08:54:34.631Z,28.20
2019-01-21T08:55:34.829Z,28.60
2019-01-21T08:56:34.977Z,26.90
2019-01-21T08:57:35.115Z,26.80
2019-01-21T08:58:35.275Z,29.20
2019-01-21T08:59:35.513Z,27.60
2019-01-21T09:00:35.612Z,27.20
2019-01-21T09:01:35.771Z,27.10
2019-01-21T09:02:35.926Z,29.50
2019-01-21T09:03:36.140Z,26.60
2019-01-21T09:04:36.233Z,29.00
2019-01-21T09:05:36.412Z,29.20
2019-01-21T09:06:36.572Z,27.10
2019-01-21T09:07:36.761Z,27.30
2019-01-21T09:08:37.694Z,29.00
2019-01-21T09:09:37.043Z,27.60
2019-01-21T09:10:37.296Z,27.30
2019-01-21T09:11:37.433Z,26.70
2019-01-21T09:12:37.553Z,27.80
2019-01-21T09:13:37.755Z,26.70
2019-01-21T09:14:37.885Z,28.30
2019-01-21T09:15:38.033Z,28.00
2019-01-21T09:16:38.343Z,28.50
2019-01-21T09:17:38.360Z,28.60
2019-01-21T09:18:38.547Z,29.10
2019-01-21T09:19:38.676Z,27.90
2019-01-21T09:20:38.849Z,29.00
2019-01-21T09:21:39.079Z,28.50
2019-01-21T09:22:39.186Z,30.20
2019-01-21T09:23:39.366Z,29.10
2019-01-21T09:24:39.616Z,28.50
2019-01-21T09:25:39.642Z,28.80
2019-01-21T09:26:39.862Z,28.50
2019-01-21T09:27:40.010Z,28.70
2019-01-21T09:28:40.164Z,28.10
2019-01-21T09:29:40.308Z,26.00
2019-01-21T09:30:40.485Z,27.80
2019-01-21T09:31:40.638Z,27.90
2019-01-21T09:32:40.876Z,29.70
2019-01-21T09:33:40.974Z,28.60
2019-01-21T09:34:41.125Z,28.60
2019-01-21T09:35:41.287Z,29.70
2019-01-21T09:36:41.461Z,29.80
2019-01-21T09:37:41.614Z,29.00
2019-01-21T09:38:41.792Z,28.40
2019-01-21T09:39:41.955Z,28.90
2019-01-21T09:40:42.147Z,30.70
2019-01-21T09:41:43.506Z,29.90
2019-01-21T09:42:42.448Z,30.50
2019-01-21T09:43:42.623Z,29.00
2019-01-21T09:44:42.779Z,29.10
2019-01-21T09:45:42.940Z,28.70
2019-01-21T09:46:43.121Z,30.20
2019-01-21T09:47:43.284Z,30.80
2019-01-21T09:48:43.453Z,29.20
2019-01-21T09:49:43.971Z,29.10
2019-01-21T09:50:43.747Z,29.90
2019-01-21T09:51:43.929Z,28.90
2019-01-21T09:52:44.097Z,29.50
2019-01-21T09:53:44.237Z,31.10
2019-01-21T09:54:44.378Z,31.10
2019-01-21T09:55:44.918Z,30.50
2019-01-21T09:56:44.736Z,32.00
2019-01-21T09:57:45.035Z,30.40
2019-01-21T09:58:45.052Z,32.00
2019-01-21T09:59:45.222Z,32.40
2019-01-21T10:00:45.372Z,31.90
2019-01-21T10:01:45.557Z,31.20
2019-01-21T10:02:45.713Z,31.90
2019-01-21T10:03:45.879Z,32.60
2019-01-21T10:04:46.001Z,32.60
2019-01-21T10:05:46.265Z,33.20
2019-01-21T10:06:46.361Z,33.30
2019-01-21T10:07:46.761Z,33.80
2019-01-21T10:08:46.668Z,30.70
2019-01-21T10:09:46.830Z,30.80
2019-01-21T10:10:46.975Z,25.10
2019-01-21T10:11:47.154Z,25.20
2019-01-21T10:12:47.341Z,24.00
2019-01-21T10:13:47.510Z,27.00
2019-01-21T10:14:47.629Z,26.00
2019-01-21T10:15:47.796Z,27.10
2019-01-21T10:16:50.822Z,26.10
2019-01-21T10:17:48.122Z,30.00
2019-01-21T10:18:48.293Z,28.10
2019-01-21T10:19:50.716Z,29.50
2019-01-21T10:20:49.794Z,26.60
2019-01-21T10:21:48.839Z,28.20
2019-01-21T10:22:48.997Z,28.50
2019-01-21T10:23:49.109Z,30.10
2019-01-21T10:24:49.285Z,27.20
2019-01-21T10:25:49.447Z,29.50
2019-01-21T10:26:49.660Z,28.00
2019-01-21T10:27:49.770Z,31.20
2019-01-21T10:28:49.917Z,30.20
2019-01-21T10:29:50.124Z,30.10
2019-01-21T10:30:50.427Z,31.30
2019-01-21T10:31:50.490Z,31.20
2019-01-21T10:32:50.598Z,31.80
2019-01-21T10:33:50.764Z,30.70
2019-01-21T10:34:50.951Z,29.50
2019-01-21T10:35:51.093Z,31.70
2019-01-21T10:36:51.301Z,29.80
2019-01-21T10:37:52.836Z,30.30
2019-01-21T10:38:51.661Z,30.20
2019-01-21T10:39:51.757Z,29.40
2019-01-21T10:40:51.903Z,30.30
2019-01-21T10:41:52.082Z,30.00
2019-01-21T10:42:52.242Z,30.70
2019-01-21T10:43:52.386Z,30.50
2019-01-21T10:44:52.548Z,29.20
2019-01-21T10:45:52.711Z,30.40
2019-01-21T10:46:52.965Z,30.00
2019-01-21T10:47:53.055Z,31.20
2019-01-21T10:48:53.191Z,29.90
2019-01-21T10:49:57.264Z,29.90
2019-01-21T10:50:53.506Z,30.30
2019-01-21T10:51:53.702Z,30.10
2019-01-21T10:52:53.863Z,31.40
2019-01-21T10:53:54.004Z,31.30
2019-01-21T10:54:54.219Z,32.60
2019-01-21T10:55:54.292Z,32.40
2019-01-21T10:56:54.486Z,31.80
2019-01-21T10:57:54.669Z,31.60
2019-01-21T10:58:54.807Z,33.70
2019-01-21T10:59:54.983Z,33.80
2019-01-21T11:00:56.544Z,32.60
2019-01-21T11:01:55.309Z,33.50
2019-01-21T11:02:55.498Z,33.70
2019-01-21T11:03:55.710Z,34.90
2019-01-21T11:04:55.792Z,34.50
2019-01-21T11:05:55.938Z,34.60
2019-01-21T11:06:56.120Z,33.90
2019-01-21T11:07:56.272Z,34.20
2019-01-21T11:08:56.424Z,35.80
2019-01-21T11:09:56.599Z,33.70
2019-01-21T11:10:56.749Z,33.50
2019-01-21T11:11:57.117Z,33.30
2019-01-21T11:12:57.075Z,33.90
2019-01-21T11:13:57.227Z,33.20
2019-01-21T11:14:57.412Z,33.10
2019-01-21T11:15:57.564Z,32.60
2019-01-21T11:16:57.742Z,31.90
2019-01-21T11:17:57.915Z,34.20
2019-01-21T11:18:58.060Z,32.20
2019-01-21T11:20:03.777Z,32.90
2019-01-21T11:20:59.355Z,32.20
2019-01-21T11:21:58.537Z,32.20
2019-01-21T11:22:58.700Z,31.80
2019-01-21T11:23:58.855Z,31.80
2019-01-21T11:24:59.038Z,32.70
2019-01-21T11:25:59.193Z,33.30
2019-01-21T11:26:59.350Z,31.00
2019-01-21T11:27:59.542Z,33.50
2019-01-21T11:28:59.682Z,31.00
2019-01-21T11:29:59.823Z,33.10
2019-01-21T11:30:59.980Z,33.20
2019-01-21T11:32:00.156Z,33.10
2019-01-21T11:33:00.335Z,33.10
2019-01-21T11:34:01.395Z,33.80
2019-01-21T11:35:00.681Z,31.50
2019-01-21T11:36:00.856Z,31.40
2019-01-21T11:37:01.037Z,32.00
2019-01-21T11:38:01.162Z,31.90
2019-01-21T11:39:01.374Z,32.20
2019-01-21T11:40:01.492Z,32.50
2019-01-21T11:41:01.607Z,31.50
2019-01-21T11:42:01.787Z,29.60
2019-01-21T11:43:01.986Z,30.20
2019-01-21T11:44:02.171Z,31.40
2019-01-21T11:45:02.660Z,31.30
2019-01-21T11:46:02.438Z,31.70
2019-01-21T11:47:02.617Z,31.50
2019-01-21T11:48:02.814Z,33.30
2019-01-21T11:49:02.981Z,31.30
2019-01-21T11:50:03.126Z,30.90
2019-01-21T11:51:03.840Z,31.40
2019-01-21T11:52:03.412Z,33.00
2019-01-21T11:53:03.732Z,32.50
2019-01-21T11:54:03.771Z,31.00
2019-01-21T11:55:03.932Z,32.20
2019-01-21T11:56:04.077Z,31.40
2019-01-21T11:57:04.225Z,33.30
2019-01-21T11:58:04.417Z,31.60
2019-01-21T11:59:04.591Z,31.80
2019-01-21T12:00:04.765Z,32.30
2019-01-21T12:01:04.926Z,32.50
2019-01-21T12:02:05.045Z,34.60
2019-01-21T12:03:05.215Z,32.90
2019-01-21T12:04:05.374Z,33.60
2019-01-21T12:05:05.568Z,34.50
2019-01-21T12:06:05.699Z,34.60
2019-01-21T12:07:05.862Z,33.50
2019-01-21T12:08:06.050Z,33.40
2019-01-21T12:09:06.220Z,34.00
2019-01-21T12:10:06.375Z,34.00
2019-01-21T12:11:06.497Z,33.50
2019-01-21T12:12:06.657Z,34.50
2019-01-21T12:13:06.845Z,34.50
2019-01-21T12:14:06.978Z,35.00
2019-01-21T12:15:07.178Z,34.40
2019-01-21T12:16:07.530Z,34.80
2019-01-21T12:17:07.530Z,35.30
2019-01-21T12:18:07.770Z,34.20
2019-01-21T12:19:07.810Z,34.90
2019-01-21T12:20:07.960Z,33.60
2019-01-21T12:21:08.117Z,31.50
2019-01-21T12:22:08.279Z,32.30
2019-01-21T12:23:08.459Z,32.80
2019-01-21T12:24:08.640Z,31.50
2019-01-21T12:25:08.793Z,32.20
2019-01-21T12:26:09.028Z,30.50
2019-01-21T12:27:09.072Z,31.00
2019-01-21T12:28:09.246Z,32.50
2019-01-21T12:29:09.416Z,32.40
2019-01-21T12:30:09.568Z,31.50
2019-01-21T12:31:09.700Z,31.50
2019-01-21T12:32:09.884Z,31.00
2019-01-21T12:33:10.061Z,30.30
2019-01-21T12:34:10.291Z,31.60
2019-01-21T12:35:10.350Z,32.30
2019-01-21T12:36:10.503Z,32.70
2019-01-21T12:37:10.677Z,31.30
2019-01-21T12:38:10.854Z,30.70
2019-01-21T12:39:11.026Z,30.80
2019-01-21T12:40:11.153Z,32.70
2019-01-21T12:41:12.701Z,30.80
2019-01-21T12:42:11.536Z,30.20
2019-01-21T12:43:11.651Z,30.90
2019-01-21T12:44:11.823Z,32.10
2019-01-21T12:45:11.978Z,31.30
2019-01-21T12:46:12.130Z,30.90
2019-01-21T12:47:12.294Z,30.30
2019-01-21T12:48:12.464Z,31.20
2019-01-21T12:49:12.625Z,30.50
2019-01-21T12:50:12.836Z,31.80
2019-01-21T12:51:13.109Z,31.20
2019-01-21T12:52:13.233Z,31.60
2019-01-21T12:53:13.487Z,32.30
2019-01-21T12:54:13.562Z,31.10